Time;durP1;ratioP1;P1;durP2;ratioP2;P2;SDS_P1;SDS_P2;PMS_P1;PMS_P2;Temp;Humidity;BMP_temperature;BMP_pressure;BME280_temperature;BME280_humidity;BME280_pressure;Samples;Min_cycle;Max_cycle;Signal;HPM_P1;HPM_P2
2022/05/27 00:00:00;;;;;;;1.88;0.75;;;18.80;91.70;;;;;;5039566;28;20472;-73
2022/05/27 00:02:29;;;;;;;2.55;0.95;;;18.80;91.70;;;;;;5025083;28;20036;-73
2022/05/27 00:04:56;;;;;;;3.88;0.82;;;18.80;92.00;;;;;;5025244;28;20041;-73
2022/05/27 00:07:25;;;;;;;2.45;0.60;;;18.80;92.80;;;;;;5023727;28;20038;-73
2022/05/27 00:09:52;;;;;;;3.90;1.00;;;18.80;93.00;;;;;;5025362;28;20049;-73
2022/05/27 00:12:20;;;;;;;3.08;1.00;;;18.80;92.90;;;;;;5027116;28;20132;-72
2022/05/27 00:14:47;;;;;;;2.63;0.70;;;18.80;91.90;;;;;;5025970;28;20048;-73
2022/05/27 00:17:14;;;;;;;1.85;0.80;;;18.80;91.80;;;;;;5022605;28;20049;-73
2022/05/27 00:19:42;;;;;;;3.72;0.82;;;18.80;91.60;;;;;;5024625;28;20054;-73
2022/05/27 00:22:09;;;;;;;5.90;1.35;;;18.80;91.30;;;;;;5027109;28;20072;-73
2022/05/27 00:24:36;;;;;;;1.13;0.52;;;18.80;91.20;;;;;;5026289;28;20046;-73
2022/05/27 00:27:06;;;;;;;3.25;0.60;;;18.80;91.10;;;;;;5026155;28;20033;-73
2022/05/27 00:29:33;;;;;;;1.08;0.55;;;18.80;91.00;;;;;;5026150;28;20053;-73
2022/05/27 00:32:21;;;;;;;2.08;0.50;;;18.80;90.90;;;;;;5022923;28;20045;-73
2022/05/27 00:34:48;;;;;;;2.63;0.80;;;18.80;91.50;;;;;;5025777;28;20442;-73
2022/05/27 00:37:15;;;;;;;1.02;0.55;;;18.80;92.40;;;;;;5026090;28;20043;-73
2022/05/27 00:39:42;;;;;;;1.23;0.60;;;18.80;91.50;;;;;;5022511;28;20049;-73
2022/05/27 00:42:09;;;;;;;1.35;0.63;;;18.80;91.60;;;;;;5024819;28;20043;-73
2022/05/27 00:44:36;;;;;;;1.85;0.55;;;18.70;91.30;;;;;;5026750;28;20065;-73
2022/05/27 00:47:17;;;;;;;1.77;0.80;;;18.80;91.40;;;;;;5027789;28;20431;-73
2022/05/27 00:49:58;;;;;;;1.80;0.82;;;18.70;91.10;;;;;;5026502;28;20414;-73
2022/05/27 00:52:29;;;;;;;2.22;0.40;;;18.70;91.40;;;;;;5008467;28;20532;-73
2022/05/27 00:54:59;;;;;;;1.63;0.50;;;18.70;92.50;;;;;;5024210;28;20030;-73
2022/05/27 00:57:57;;;;;;;1.45;0.50;;;18.70;92.00;;;;;;5027238;28;20048;-73
2022/05/27 01:00:25;;;;;;;0.80;0.43;;;18.80;91.70;;;;;;5020084;28;20054;-73
2022/05/27 01:02:55;;;;;;;1.55;0.32;;;18.70;91.50;;;;;;5024374;28;20044;-73
2022/05/27 01:05:24;;;;;;;1.70;0.40;;;18.70;91.50;;;;;;5021262;28;20045;-73
2022/05/27 01:07:57;;;;;;;2.25;0.30;;;18.70;92.30;;;;;;5027456;28;20065;-73
2022/05/27 01:10:26;;;;;;;2.92;0.40;;;18.80;91.90;;;;;;5024050;28;20140;-73
2022/05/27 01:13:13;;;;;;;1.15;0.43;;;18.70;92.40;;;;;;5025082;28;20049;-73
2022/05/27 01:16:10;;;;;;;2.40;0.40;;;18.70;91.90;;;;;;5023771;28;20061;-73
2022/05/27 01:21:50;;;;;;;1.92;0.43;;;18.80;91.00;;;;;;5019451;28;20045;-73
2022/05/27 01:24:43;;;;;;;1.33;0.30;;;18.70;91.30;;;;;;5026633;28;20045;-73
2022/05/27 01:27:39;;;;;;;1.48;0.40;;;18.70;91.70;;;;;;5003491;28;20049;-73
2022/05/27 01:30:16;;;;;;;2.25;1.05;;;18.70;91.90;;;;;;5026409;28;20048;-73
2022/05/27 01:33:12;;;;;;;3.80;0.57;;;18.70;91.20;;;;;;5019922;28;20033;-73
2022/05/27 01:35:44;;;;;;;1.17;0.43;;;18.80;91.00;;;;;;5007588;28;20373;-73
2022/05/27 01:38:14;;;;;;;;;;;18.70;91.20;;;;;;5024457;28;20114;-73
2022/05/27 01:41:12;;;;;;;1.20;0.70;;;18.70;91.60;;;;;;5023265;28;19928;-73
2022/05/27 01:43:45;;;;;;;2.13;0.35;;;18.70;92.80;;;;;;5023871;28;20040;-73
2022/05/27 01:46:35;;;;;;;4.20;0.40;;;18.70;91.80;;;;;;5025828;28;20472;-73
2022/05/27 01:49:20;;;;;;;0.80;0.40;;;18.70;91.70;;;;;;5015285;28;20057;-72
2022/05/27 01:52:11;;;;;;;2.35;0.75;;;18.70;91.40;;;;;;5023668;28;20041;-73
2022/05/27 01:54:48;;;;;;;0.90;0.57;;;18.60;91.30;;;;;;5022938;28;20064;-73
2022/05/27 01:57:37;;;;;;;0.95;0.40;;;18.60;91.30;;;;;;5019934;28;20045;-73
2022/05/27 02:00:11;;;;;;;1.83;0.50;;;18.60;91.40;;;;;;5024417;28;20095;-73
2022/05/27 02:02:59;;;;;;;2.30;0.52;;;18.60;92.70;;;;;;5025447;28;20059;-72
2022/05/27 02:05:31;;;;;;;1.25;0.50;;;18.60;92.80;;;;;;5008285;28;20045;-73
2022/05/27 02:08:11;;;;;;;2.42;0.43;;;18.60;92.50;;;;;;5024439;28;20395;-73
2022/05/27 02:11:01;;;;;;;0.88;0.40;;;18.60;92.30;;;;;;5008526;28;20054;-73
2022/05/27 02:13:41;;;;;;;1.75;0.40;;;18.60;91.90;;;;;;5023895;28;20042;-73
2022/05/27 02:16:13;;;;;;;0.80;0.40;;;18.60;91.80;;;;;;5027090;28;20044;-73
2022/05/27 02:18:48;;;;;;;3.15;0.80;;;18.60;91.70;;;;;;5029927;28;20069;-73
2022/05/27 02:21:24;;;;;;;0.88;0.35;;;18.50;91.70;;;;;;5035108;28;20026;-73
2022/05/27 02:24:07;;;;;;;1.45;0.40;;;18.50;91.70;;;;;;5013621;28;20447;-72
2022/05/27 02:26:41;;;;;;;1.33;0.43;;;18.50;91.80;;;;;;5032966;28;20033;-73
2022/05/27 02:29:13;;;;;;;2.47;0.60;;;18.50;92.50;;;;;;5031347;28;20635;-73
2022/05/27 02:31:47;;;;;;;0.77;0.30;;;18.50;92.60;;;;;;5044312;28;20124;-73
2022/05/27 02:37:14;;;;;;;1.00;0.47;;;18.40;92.50;;;;;;5046776;28;20147;-73
2022/05/27 02:39:41;;;;;;;1.65;0.90;;;18.40;92.70;;;;;;5047745;28;20110;-73
2022/05/27 02:42:37;;;;;;;1.20;0.60;;;18.30;92.90;;;;;;5032367;28;20048;-73
2022/05/27 02:45:04;;;;;;;0.80;0.70;;;18.30;93.00;;;;;;5004895;28;20734;-73
2022/05/27 02:47:39;;;;;;;4.93;1.08;;;18.30;93.30;;;;;;5030675;28;20071;-73
2022/05/27 02:50:36;;;;;;;3.42;0.75;;;18.20;93.90;;;;;;5027852;28;20049;-73
2022/05/27 02:53:21;;;;;;;1.92;0.68;;;18.20;93.50;;;;;;5015571;28;20310;-73
2022/05/27 02:56:17;;;;;;;4.32;0.93;;;18.10;94.30;;;;;;5031014;28;20048;-73
2022/05/27 02:58:45;;;;;;;2.05;0.70;;;18.10;94.60;;;;;;5043544;28;20111;-73
2022/05/27 03:01:12;;;;;;;2.25;0.63;;;18.10;94.80;;;;;;5016172;28;22538;-73
2022/05/27 03:03:40;;;;;;;2.25;0.57;;;18.10;95.00;;;;;;5029259;28;20096;-73
2022/05/27 03:06:26;;;;;;;4.45;0.55;;;18.00;95.60;;;;;;5030415;28;20393;-73
2022/05/27 03:08:59;;;;;;;3.92;0.65;;;18.10;95.70;;;;;;5049233;28;20052;-73
2022/05/27 03:12:05;;;;;;;1.13;0.50;;;18.00;95.30;;;;;;5031063;28;20037;-73
2022/05/27 03:15:01;;;;;;;1.98;0.60;;;18.00;95.90;;;;;;4948014;28;20058;-73
2022/05/27 03:17:42;;;;;;;1.23;0.70;;;18.00;96.30;;;;;;5013157;28;20125;-73
2022/05/27 03:20:26;;;;;;;1.88;0.65;;;18.00;97.10;;;;;;5046827;28;23436;-73
2022/05/27 03:22:58;;;;;;;2.67;0.68;;;18.00;96.90;;;;;;5031169;28;22464;-73
2022/05/27 03:25:45;;;;;;;2.60;0.88;;;18.00;96.60;;;;;;5029832;28;20049;-73
2022/05/27 03:28:37;;;;;;;5.50;1.35;;;18.10;97.50;;;;;;5031878;28;20044;-73
2022/05/27 03:31:17;;;;;;;1.08;0.63;;;18.10;97.50;;;;;;5029544;28;20069;-73
2022/05/27 03:34:10;;;;;;;1.95;0.70;;;18.10;97.50;;;;;;5045577;28;20052;-73
2022/05/27 03:36:47;;;;;;;3.15;1.17;;;18.10;97.60;;;;;;5012545;28;20041;-73
2022/05/27 03:39:23;;;;;;;2.03;1.20;;;18.10;97.70;;;;;;5045417;28;20451;-73
2022/05/27 03:41:56;;;;;;;2.28;1.65;;;18.10;97.30;;;;;;5026050;28;20132;-73
2022/05/27 03:44:26;;;;;;;3.45;1.75;;;18.20;97.80;;;;;;5028219;28;20454;-73
2022/05/27 03:46:57;;;;;;;3.13;1.83;;;18.10;97.80;;;;;;5046338;28;20044;-73
2022/05/27 03:49:25;;;;;;;3.20;1.63;;;18.20;97.80;;;;;;5026451;28;20901;-73
2022/05/27 03:52:08;;;;;;;2.72;1.40;;;18.20;98.30;;;;;;5028532;28;20046;-73
2022/05/27 03:54:35;;;;;;;4.30;1.50;;;18.30;99.50;;;;;;5029367;28;20056;-73
2022/05/27 03:57:03;;;;;;;4.07;1.15;;;18.30;99.90;;;;;;5028963;28;20053;-73
2022/05/27 03:59:31;;;;;;;4.07;1.77;;;18.30;98.60;;;;;;5028066;28;20096;-73
2022/05/27 04:01:58;;;;;;;5.85;1.55;;;18.40;98.60;;;;;;5027221;28;20033;-73
2022/05/27 04:04:28;;;;;;;34.88;12.82;;;18.40;98.90;;;;;;5038386;28;20041;-73
2022/05/27 04:06:56;;;;;;;21.88;9.32;;;18.50;97.60;;;;;;5042820;28;20042;-73
2022/05/27 04:09:25;;;;;;;15.80;8.95;;;18.50;97.30;;;;;;5007575;28;20057;-73
2022/05/27 04:11:54;;;;;;;8.07;4.75;;;18.60;96.00;;;;;;5012267;28;20052;-73
2022/05/27 04:14:21;;;;;;;10.35;4.95;;;18.60;96.30;;;;;;5029087;28;20116;-73
2022/05/27 04:16:48;;;;;;;9.25;4.63;;;18.60;97.40;;;;;;5029351;28;20034;-73
2022/05/27 04:19:17;;;;;;;7.22;2.85;;;18.70;97.40;;;;;;5027130;28;20137;-73
2022/05/27 04:21:45;;;;;;;7.55;2.17;;;18.70;97.30;;;;;;5028011;28;20358;-73
2022/05/27 04:24:12;;;;;;;2.63;1.20;;;18.80;97.20;;;;;;5025115;28;20114;-73
2022/05/27 04:26:39;;;;;;;2.95;1.08;;;18.90;98.00;;;;;;5026135;28;20053;-73
2022/05/27 04:29:06;;;;;;;1.70;0.93;;;18.90;98.00;;;;;;5025373;28;20049;-72
2022/05/27 04:31:33;;;;;;;4.47;1.27;;;19.00;97.80;;;;;;5025448;28;20069;-73
2022/05/27 04:34:03;;;;;;;5.97;1.15;;;19.00;97.40;;;;;;5021081;28;20045;-73
2022/05/27 04:36:30;;;;;;;1.60;0.82;;;19.00;97.10;;;;;;5009645;28;20048;-73
2022/05/27 04:38:57;;;;;;;4.07;0.77;;;19.00;97.70;;;;;;5009886;28;21138;-73
2022/05/27 04:41:25;;;;;;;3.65;1.15;;;18.90;97.70;;;;;;5025657;28;20053;-73
2022/05/27 04:43:52;;;;;;;2.92;0.80;;;18.90;98.00;;;;;;5026503;28;20037;-73
2022/05/27 04:46:19;;;;;;;3.05;1.00;;;18.90;98.10;;;;;;5041813;28;20041;-73
2022/05/27 04:48:49;;;;;;;4.13;1.27;;;19.00;98.40;;;;;;5026935;28;20038;-73
2022/05/27 04:51:16;;;;;;;3.90;0.90;;;19.00;98.50;;;;;;5022848;28;20492;-73
2022/05/27 04:53:43;;;;;;;6.38;0.98;;;19.10;98.60;;;;;;5040242;28;20045;-73
2022/05/27 04:56:11;;;;;;;2.95;1.10;;;19.10;97.80;;;;;;5008717;28;20050;-73
2022/05/27 04:58:38;;;;;;;2.25;0.85;;;19.30;97.10;;;;;;5021363;28;20037;-73
2022/05/27 05:01:05;;;;;;;2.80;0.90;;;19.50;95.10;;;;;;5035687;28;20574;-73
2022/05/27 05:03:32;;;;;;;4.25;0.90;;;19.60;94.10;;;;;;5013290;28;20096;-73
2022/05/27 05:05:59;;;;;;;2.13;1.00;;;19.50;94.50;;;;;;5009178;28;20057;-73
2022/05/27 05:08:33;;;;;;;3.25;1.00;;;19.30;93.80;;;;;;5043926;28;20045;-73
2022/05/27 05:11:02;;;;;;;4.15;0.95;;;19.20;94.30;;;;;;5015497;28;20065;-73
2022/05/27 05:13:31;;;;;;;5.03;1.10;;;19.30;94.10;;;;;;5012595;28;20077;-73
2022/05/27 05:15:58;;;;;;;4.03;1.00;;;19.50;94.10;;;;;;5012113;28;20057;-73
2022/05/27 05:18:26;;;;;;;7.38;1.60;;;19.80;92.30;;;;;;4994174;28;20183;-73
2022/05/27 05:20:53;;;;;;;2.15;0.93;;;19.90;92.10;;;;;;5029957;28;22470;-72
2022/05/27 05:23:20;;;;;;;3.22;1.00;;;20.10;92.80;;;;;;5012326;28;20061;-72
2022/05/27 05:25:47;;;;;;;3.17;0.80;;;20.20;92.50;;;;;;5005314;28;20870;-72
2022/05/27 05:28:14;;;;;;;3.55;0.88;;;20.40;92.70;;;;;;4990134;28;20053;-72
2022/05/27 05:30:41;;;;;;;2.20;1.10;;;20.60;91.60;;;;;;4993132;28;20057;-73
2022/05/27 05:33:09;;;;;;;4.65;1.13;;;20.70;91.10;;;;;;5003510;28;20049;-72
2022/05/27 05:35:36;;;;;;;4.25;1.40;;;20.80;89.40;;;;;;5009868;28;20044;-72
2022/05/27 05:38:03;;;;;;;3.83;1.25;;;20.90;87.40;;;;;;5013874;28;20064;-73
2022/05/27 05:40:31;;;;;;;3.25;0.60;;;21.00;86.80;;;;;;5009993;28;20146;-72
2022/05/27 05:43:00;;;;;;;8.00;1.00;;;21.10;85.30;;;;;;5009079;28;20049;-73
2022/05/27 05:45:28;;;;;;;2.05;0.63;;;21.20;84.50;;;;;;5008728;28;20458;-72
2022/05/27 05:47:55;;;;;;;2.92;0.82;;;21.20;80.40;;;;;;5024655;28;20049;-72
2022/05/27 05:50:23;;;;;;;2.90;0.50;;;21.30;82.30;;;;;;4998749;28;20049;-72
2022/05/27 05:52:50;;;;;;;2.35;0.40;;;21.50;80.90;;;;;;4982236;28;20049;-72
2022/05/27 05:55:18;;;;;;;1.15;0.47;;;21.50;77.70;;;;;;4998003;28;20056;-72
2022/05/27 05:57:47;;;;;;;3.38;0.52;;;21.30;77.80;;;;;;4993090;28;20058;-72
2022/05/27 06:00:21;;;;;;;1.73;0.20;;;21.50;78.00;;;;;;5001348;28;20037;-72
2022/05/27 06:02:49;;;;;;;2.35;0.40;;;21.70;77.10;;;;;;5002515;28;20045;-72
2022/05/27 06:05:16;;;;;;;1.38;0.50;;;21.90;76.10;;;;;;5010690;28;20049;-72
2022/05/27 06:07:44;;;;;;;2.88;0.40;;;21.90;72.60;;;;;;5011757;28;20065;-73
2022/05/27 06:10:14;;;;;;;2.05;0.20;;;21.90;71.30;;;;;;5000695;28;20061;-73
2022/05/27 06:12:41;;;;;;;2.03;0.20;;;22.00;67.90;;;;;;5004960;28;20049;-73
2022/05/27 06:15:19;;;;;;;0.98;0.20;;;21.90;67.90;;;;;;5004085;28;22364;-73
2022/05/27 06:17:46;;;;;;;1.98;0.20;;;22.00;65.50;;;;;;5029570;28;20046;-73
2022/05/27 06:20:13;;;;;;;0.60;0.20;;;22.20;66.20;;;;;;5005156;28;20128;-73
2022/05/27 06:22:40;;;;;;;0.75;0.10;;;22.40;67.80;;;;;;4992450;28;20045;-74
2022/05/27 06:25:08;;;;;;;2.22;0.10;;;22.40;63.50;;;;;;5000270;28;20211;-75
2022/05/27 06:27:35;;;;;;;0.22;0.10;;;22.40;60.60;;;;;;5000374;28;20046;-74
2022/05/27 06:35:36;;;;;;;1.30;0.10;;;22.50;59.80;;;;;;4996821;28;20053;-74
2022/05/27 06:38:03;;;;;;;0.63;0.10;;;22.70;59.70;;;;;;5007587;28;20048;-74
2022/05/27 06:40:30;;;;;;;1.25;0.10;;;22.80;59.20;;;;;;5004175;28;20773;-75
2022/05/27 06:42:58;;;;;;;0.57;0.10;;;22.90;58.40;;;;;;5004343;28;20034;-74
2022/05/27 06:45:25;;;;;;;0.47;0.10;;;22.50;58.70;;;;;;4996048;28;20053;-74
2022/05/27 06:47:52;;;;;;;1.10;0.10;;;22.50;60.00;;;;;;5006466;28;20045;-74
2022/05/27 06:50:19;;;;;;;0.47;0.17;;;22.80;59.60;;;;;;5004532;28;20050;-74
2022/05/27 06:52:52;;;;;;;;;;;22.80;59.30;;;;;;5008791;28;20115;-75
2022/05/27 06:55:20;;;;;;;1.30;0.20;;;22.90;57.80;;;;;;5010616;28;19936;-74
2022/05/27 06:57:47;;;;;;;1.20;0.20;;;23.00;58.10;;;;;;5003935;28;20994;-74
2022/05/27 07:00:14;;;;;;;1.20;0.10;;;23.10;59.20;;;;;;4995761;28;20684;-74
2022/05/27 07:02:42;;;;;;;2.42;0.10;;;23.40;58.10;;;;;;5003319;28;20061;-74
2022/05/27 07:05:09;;;;;;;3.15;0.15;;;23.50;59.20;;;;;;5010126;28;22402;-74
2022/05/27 07:07:36;;;;;;;3.67;0.50;;;23.40;59.00;;;;;;5006396;28;20046;-75
2022/05/27 07:10:05;;;;;;;3.45;0.10;;;23.10;58.80;;;;;;5002764;28;20162;-74
2022/05/27 07:12:32;;;;;;;1.65;0.10;;;23.20;58.80;;;;;;5030779;28;20195;-74
2022/05/27 07:14:59;;;;;;;2.05;0.10;;;23.40;60.00;;;;;;5007355;28;20050;-74
2022/05/27 07:17:27;;;;;;;0.70;0.10;;;23.00;60.00;;;;;;5004714;28;20041;-74
2022/05/27 07:19:54;;;;;;;0.73;0.20;;;22.80;60.80;;;;;;5003359;28;20960;-75
2022/05/27 07:22:21;;;;;;;0.47;0.20;;;22.50;60.70;;;;;;5006657;28;22382;-75
2022/05/27 07:24:48;;;;;;;0.80;0.40;;;22.30;61.40;;;;;;5024492;28;20054;-74
2022/05/27 07:27:15;;;;;;;2.35;0.20;;;22.10;63.00;;;;;;5012997;28;20034;-75
2022/05/27 07:29:42;;;;;;;1.95;0.10;;;21.90;61.80;;;;;;5012990;28;20052;-75
2022/05/27 07:32:09;;;;;;;1.95;0.10;;;22.20;62.50;;;;;;5010950;28;20053;-75
2022/05/27 07:34:37;;;;;;;1.05;0.10;;;22.50;62.10;;;;;;5025324;28;20050;-74
2022/05/27 07:37:05;;;;;;;0.57;0.10;;;22.70;60.60;;;;;;5003964;28;20076;-75
2022/05/27 07:39:32;;;;;;;4.43;0.20;;;23.00;60.40;;;;;;5020234;28;20045;-75
2022/05/27 07:41:59;;;;;;;0.60;0.20;;;23.20;59.50;;;;;;5023124;28;20049;-74
2022/05/27 07:44:26;;;;;;;1.55;0.40;;;23.40;59.00;;;;;;5004103;28;20041;-75
2022/05/27 07:46:54;;;;;;;1.35;0.10;;;23.20;57.90;;;;;;5007567;28;20057;-74
2022/05/27 07:49:22;;;;;;;1.10;0.10;;;23.20;59.20;;;;;;4995574;28;20092;-74
2022/05/27 07:52:05;;;;;;;0.60;0.10;;;23.50;59.00;;;;;;5000257;28;20130;-74
2022/05/27 07:54:34;;;;;;;0.50;0.10;;;23.60;59.00;;;;;;4995440;28;20187;-74
2022/05/27 07:57:02;;;;;;;1.58;0.10;;;23.80;59.10;;;;;;4997225;28;21200;-74
2022/05/27 07:59:29;;;;;;;1.42;0.10;;;23.70;57.70;;;;;;5024771;28;20050;-75
2022/05/27 08:01:57;;;;;;;0.90;0.20;;;23.70;58.90;;;;;;5005597;28;20057;-75
2022/05/27 08:04:24;;;;;;;3.72;0.10;;;23.60;59.00;;;;;;5003008;28;20060;-75
2022/05/27 08:06:51;;;;;;;1.88;0.43;;;23.70;58.30;;;;;;5009887;28;20100;-74
2022/05/27 08:09:19;;;;;;;0.50;0.10;;;24.00;58.90;;;;;;5005858;28;20065;-75
2022/05/27 08:11:47;;;;;;;5.20;0.30;;;23.80;57.10;;;;;;5025604;28;20061;-75
2022/05/27 08:14:14;;;;;;;2.28;0.20;;;23.60;57.50;;;;;;5014437;28;20148;-73
2022/05/27 08:16:42;;;;;;;0.60;0.10;;;23.70;58.40;;;;;;5001762;28;20052;-75
2022/05/27 08:19:10;;;;;;;1.92;0.63;;;23.60;57.60;;;;;;4996164;28;20057;-76
2022/05/27 08:21:37;;;;;;;0.98;0.10;;;23.70;58.40;;;;;;4999444;28;20049;-74
2022/05/27 08:24:08;;;;;;;2.97;0.10;;;23.90;58.30;;;;;;5004176;28;20172;-75
2022/05/27 08:26:37;;;;;;;1.95;0.10;;;23.80;56.90;;;;;;5000445;28;20049;-75
2022/05/27 08:29:05;;;;;;;0.82;0.10;;;23.70;58.20;;;;;;4999887;28;20203;-74
2022/05/27 08:31:32;;;;;;;1.60;0.30;;;24.10;59.10;;;;;;5002211;28;20049;-74
2022/05/27 08:39:35;;;;;;;0.22;0.17;;;24.00;57.50;;;;;;4999415;28;20500;-74
2022/05/27 08:42:03;;;;;;;0.95;0.10;;;24.10;56.70;;;;;;5006616;28;20057;-74
2022/05/27 08:44:45;;;;;;;1.95;0.30;;;24.10;59.20;;;;;;4996540;28;20060;-74
2022/05/27 08:47:29;;;;;;;0.52;0.20;;;24.40;57.60;;;;;;4995805;28;20056;-75
2022/05/27 08:50:08;;;;;;;2.25;0.22;;;24.60;57.10;;;;;;5003180;28;20033;-74
2022/05/27 08:52:46;;;;;;;1.42;0.20;;;24.40;56.00;;;;;;5012630;28;20064;-74
2022/05/27 09:01:22;;;;;;;1.33;0.20;;;24.00;57.60;;;;;;5019305;28;20060;-73
2022/05/27 09:04:07;;;;;;;0.77;0.25;;;24.00;58.00;;;;;;4994907;28;20049;-74
2022/05/27 09:06:44;;;;;;;2.72;0.20;;;24.30;59.60;;;;;;5001171;28;20060;-74
2022/05/27 09:09:25;;;;;;;2.67;0.30;;;24.50;57.20;;;;;;5017290;28;20050;-74
2022/05/27 09:12:14;;;;;;;2.17;0.20;;;24.60;56.90;;;;;;4997946;28;20096;-74
2022/05/27 09:14:47;;;;;;;1.67;0.20;;;24.50;56.00;;;;;;5000182;28;20106;-74
2022/05/27 09:17:28;;;;;;;1.08;0.20;;;24.50;57.60;;;;;;4995308;28;20045;-74
2022/05/27 09:20:24;;;;;;;3.25;0.20;;;24.50;57.40;;;;;;5009031;28;20054;-74
2022/05/27 09:23:09;;;;;;;2.67;0.25;;;24.50;57.50;;;;;;4999482;28;20054;-74
2022/05/27 09:25:54;;;;;;;3.15;0.20;;;24.60;58.40;;;;;;4998314;28;22405;-74
2022/05/27 09:28:44;;;;;;;0.60;0.10;;;24.60;56.20;;;;;;5003147;28;20132;-74
2022/05/27 09:31:15;;;;;;;1.67;0.20;;;24.70;57.50;;;;;;5020875;28;20122;-74
2022/05/27 09:33:44;;;;;;;4.05;0.20;;;24.90;58.40;;;;;;4992083;28;20085;-74
2022/05/27 09:36:20;;;;;;;1.13;0.13;;;24.90;57.10;;;;;;5002880;28;20049;-74
2022/05/27 09:38:55;;;;;;;1.58;0.20;;;25.00;57.40;;;;;;5016027;28;20072;-74
2022/05/27 09:41:32;;;;;;;0.85;0.20;;;25.10;57.00;;;;;;5021797;28;20128;-74
2022/05/27 09:44:24;;;;;;;0.82;0.20;;;25.00;56.40;;;;;;4990940;28;20056;-73
2022/05/27 09:46:51;;;;;;;;;;;25.10;57.10;;;;;;5000852;28;20136;-74
2022/05/27 09:49:19;;;;;;;1.10;0.22;;;25.10;58.00;;;;;;4998413;28;20611;-75
2022/05/27 09:51:46;;;;;;;1.10;0.20;;;24.80;55.50;;;;;;4999665;28;20057;-74
2022/05/27 09:54:21;;;;;;;4.43;0.20;;;24.70;55.60;;;;;;4997133;28;20099;-73
2022/05/27 09:56:59;;;;;;;1.45;0.43;;;24.70;55.10;;;;;;4996826;28;20056;-73
2022/05/27 09:59:47;;;;;;;1.65;0.20;;;24.50;56.00;;;;;;5013113;28;20107;-74
2022/05/27 10:02:20;;;;;;;1.83;0.10;;;24.60;55.60;;;;;;5001670;28;20045;-74
2022/05/27 10:04:53;;;;;;;1.27;0.35;;;24.80;54.80;;;;;;4986808;28;20056;-74
2022/05/27 10:07:27;;;;;;;1.80;0.20;;;25.00;56.60;;;;;;4999075;28;20057;-73
2022/05/27 10:09:55;;;;;;;1.67;0.10;;;25.00;54.90;;;;;;5011928;28;20172;-74
2022/05/27 10:12:28;;;;;;;0.70;0.10;;;24.70;55.90;;;;;;5003755;28;20045;-73
2022/05/27 10:14:55;;;;;;;;;;;24.70;56.30;;;;;;5001995;28;20049;-75
2022/05/27 10:17:36;;;;;;;0.68;0.20;;;24.70;56.10;;;;;;4991953;28;19936;-75
2022/05/27 10:20:18;;;;;;;1.40;0.32;;;24.80;56.10;;;;;;5001380;28;23920;-74
2022/05/27 10:23:07;;;;;;;2.17;0.22;;;24.70;56.50;;;;;;5005983;28;20050;-74
2022/05/27 10:25:38;;;;;;;0.70;0.20;;;24.60;57.20;;;;;;5000754;28;20144;-74
2022/05/27 10:28:07;;;;;;;1.92;0.20;;;24.70;56.70;;;;;;4992847;28;20061;-74
2022/05/27 10:30:51;;;;;;;1.40;0.20;;;24.50;57.50;;;;;;5005351;28;20041;-74
2022/05/27 10:33:22;;;;;;;2.58;0.20;;;24.30;57.90;;;;;;5016482;28;20053;-73
2022/05/27 10:35:52;;;;;;;1.95;0.52;;;24.30;58.20;;;;;;4996242;28;20050;-73
2022/05/27 10:38:22;;;;;;;3.25;0.20;;;24.40;58.70;;;;;;4992180;28;20049;-74
2022/05/27 10:41:01;;;;;;;1.13;0.20;;;24.70;59.20;;;;;;4995392;28;20046;-76
2022/05/27 10:44:07;;;;;;;1.75;0.30;;;24.80;55.80;;;;;;5002273;28;20243;-75
2022/05/27 10:46:46;;;;;;;1.88;0.30;;;24.70;58.00;;;;;;5002153;28;20060;-73
2022/05/27 10:49:47;;;;;;;1.55;0.30;;;24.90;59.50;;;;;;5004702;28;20037;-73
2022/05/27 10:52:42;;;;;;;1.65;0.30;;;25.00;59.50;;;;;;5004217;28;20049;-72
2022/05/27 10:55:34;;;;;;;0.50;0.20;;;25.30;58.60;;;;;;4986662;28;20067;-73
2022/05/27 11:04:20;;;;;;;3.05;0.20;;;24.60;56.50;;;;;;4999313;28;20217;-74
2022/05/27 11:07:06;;;;;;;2.67;0.20;;;24.80;57.70;;;;;;5008317;28;20045;-74
2022/05/27 11:09:52;;;;;;;1.20;0.20;;;25.00;56.90;;;;;;5029156;28;20057;-74
2022/05/27 11:15:10;;;;;;;1.80;0.10;;;25.00;56.20;;;;;;4976706;28;20050;-73
2022/05/27 11:15:35;;;;;;;0.77;0.20;;;24.90;58.40;;;;;;5039035;28;20056;-73
2022/05/27 11:18:18;;;;;;;1.30;0.32;;;24.90;57.00;;;;;;5007076;28;20049;-74
2022/05/27 11:21:20;;;;;;;2.50;0.30;;;25.20;57.20;;;;;;5030530;28;20140;-74
2022/05/27 11:24:09;;;;;;;2.50;0.30;;;25.30;58.10;;;;;;5000317;28;20492;-74
2022/05/27 11:26:43;;;;;;;4.13;0.20;;;25.00;58.20;;;;;;5023448;28;20405;-74
2022/05/27 11:29:42;;;;;;;2.28;0.20;;;25.20;57.80;;;;;;5015025;28;22327;-73
2022/05/27 11:32:28;;;;;;;0.50;0.20;;;25.40;58.70;;;;;;5002961;28;20739;-74
2022/05/27 11:35:39;;;;;;;4.65;0.30;;;25.40;57.50;;;;;;4985782;28;20045;-74
2022/05/27 11:38:17;;;;;;;1.75;0.20;;;25.40;55.90;;;;;;5002953;28;20050;-76
2022/05/27 11:40:44;;;;;;;1.55;0.30;;;25.50;56.90;;;;;;5017842;28;20088;-74
2022/05/27 11:43:50;;;;;;;0.95;0.20;;;25.70;58.10;;;;;;5007270;28;20651;-76
2022/05/27 11:46:45;;;;;;;0.85;0.20;;;25.90;57.60;;;;;;4994732;28;20057;-76
2022/05/27 11:49:24;;;;;;;0.80;0.40;;;25.90;58.00;;;;;;4996469;28;20085;-74
2022/05/27 11:52:19;;;;;;;0.52;0.20;;;26.10;56.70;;;;;;5015468;28;20049;-74
2022/05/27 11:55:27;;;;;;;1.55;0.30;;;25.90;55.50;;;;;;5016798;28;22508;-75
2022/05/27 11:57:58;;;;;;;0.90;0.20;;;26.00;56.30;;;;;;5003055;28;20045;-74
2022/05/27 12:00:31;;;;;;;2.10;0.47;;;25.90;56.40;;;;;;4985431;28;20214;-74
2022/05/27 12:03:13;;;;;;;1.35;0.30;;;25.90;56.50;;;;;;5003726;28;20960;-74
2022/05/27 12:05:46;;;;;;;1.70;0.20;;;26.10;58.60;;;;;;5002783;28;20041;-74
2022/05/27 12:08:38;;;;;;;0.70;0.20;;;26.30;55.80;;;;;;4996294;28;20065;-74
2022/05/27 12:11:19;;;;;;;1.98;0.55;;;26.30;57.80;;;;;;4999653;28;20685;-75
2022/05/27 12:14:03;;;;;;;2.47;0.30;;;26.40;58.70;;;;;;4985547;28;20057;-74
2022/05/27 12:16:37;;;;;;;2.20;0.38;;;26.00;55.70;;;;;;4993198;28;20186;-74
2022/05/27 12:19:11;;;;;;;1.85;0.30;;;25.90;58.80;;;;;;5009421;28;20042;-74
2022/05/27 12:21:43;;;;;;;1.48;0.68;;;26.20;57.90;;;;;;5003110;28;20046;-74
2022/05/27 12:24:36;;;;;;;1.23;0.22;;;26.20;57.60;;;;;;5004130;28;20127;-74
2022/05/27 12:27:04;;;;;;;1.88;0.30;;;26.30;57.00;;;;;;5010310;28;20057;-75
2022/05/27 12:29:33;;;;;;;2.17;0.20;;;26.30;56.20;;;;;;4980465;28;20050;-74
2022/05/27 12:32:00;;;;;;;2.35;0.20;;;25.90;55.80;;;;;;5009306;28;20045;-74
2022/05/27 12:34:27;;;;;;;1.00;0.30;;;25.60;57.50;;;;;;5041728;28;20122;-74
2022/05/27 12:37:00;;;;;;;1.33;0.20;;;25.50;57.70;;;;;;4986418;28;20500;-74
2022/05/27 12:39:29;;;;;;;0.45;0.20;;;25.80;58.10;;;;;;5008570;28;20046;-74
2022/05/27 12:42:10;;;;;;;1.95;0.30;;;25.90;58.30;;;;;;5006644;28;22620;-74
2022/05/27 12:44:39;;;;;;;2.08;0.25;;;25.90;57.00;;;;;;4992050;28;20108;-74
2022/05/27 12:47:34;;;;;;;1.42;0.30;;;26.00;57.90;;;;;;5006935;28;20041;-74
2022/05/27 12:50:11;;;;;;;1.60;0.38;;;26.40;57.60;;;;;;5010967;28;20770;-74
2022/05/27 12:52:49;;;;;;;0.80;0.30;;;26.20;56.30;;;;;;5006041;28;20103;-74
2022/05/27 12:55:42;;;;;;;1.25;0.20;;;26.20;56.90;;;;;;5007011;28;20270;-74
2022/05/27 13:00:59;;;;;;;0.60;0.25;;;25.80;57.20;;;;;;5007297;28;19935;-74
2022/05/27 13:03:38;;;;;;;3.78;0.43;;;25.90;57.70;;;;;;4992572;28;20459;-74
2022/05/27 13:06:19;;;;;;;2.55;0.82;;;26.40;58.90;;;;;;4985936;28;20058;-75
2022/05/27 13:08:53;;;;;;;0.60;0.20;;;26.60;58.00;;;;;;5021540;28;20054;-74
2022/05/27 13:11:23;;;;;;;2.78;0.30;;;26.90;56.70;;;;;;4997088;28;20041;-74
2022/05/27 13:14:04;;;;;;;3.03;0.30;;;26.60;55.70;;;;;;5001706;28;20073;-74
2022/05/27 13:17:30;;;;;;;2.60;0.20;;;26.50;55.90;;;;;;5002811;28;20065;-74
2022/05/27 13:20:08;;;;;;;2.15;0.25;;;26.50;56.30;;;;;;5003892;28;20497;-74
2022/05/27 13:22:52;;;;;;;1.90;0.40;;;26.70;56.80;;;;;;4992849;28;20174;-74
2022/05/27 13:25:34;;;;;;;3.20;0.85;;;26.40;55.70;;;;;;5007074;28;20041;-74
2022/05/27 13:28:25;;;;;;;1.38;0.28;;;26.20;57.40;;;;;;5007333;28;20095;-74
2022/05/27 13:31:03;;;;;;;1.35;0.40;;;26.30;56.30;;;;;;5003342;28;20050;-74
2022/05/27 13:33:48;;;;;;;2.53;0.30;;;26.50;57.30;;;;;;5003399;28;20080;-74
2022/05/27 13:36:29;;;;;;;0.80;0.20;;;26.40;57.20;;;;;;4997648;28;20053;-74
2022/05/27 13:39:08;;;;;;;1.57;0.70;;;26.10;58.20;;;;;;5010107;28;22536;-73
2022/05/27 13:41:48;;;;;;;0.98;0.20;;;26.00;57.70;;;;;;5020193;28;20196;-74
2022/05/27 13:44:24;;;;;;;0.82;0.40;;;26.10;57.50;;;;;;5017730;28;20045;-73
2022/05/27 13:46:59;;;;;;;1.25;0.30;;;26.20;58.30;;;;;;5017480;28;20041;-76
2022/05/27 13:49:38;;;;;;;2.70;0.30;;;26.10;57.60;;;;;;4997451;28;20136;-74
2022/05/27 13:52:34;;;;;;;0.50;0.30;;;25.90;57.50;;;;;;4983029;28;20061;-73
2022/05/27 13:55:10;;;;;;;3.35;0.30;;;25.80;59.00;;;;;;5017444;28;20049;-74
2022/05/27 13:57:46;;;;;;;2.30;0.50;;;25.70;58.40;;;;;;5000911;28;20068;-74
2022/05/27 14:00:18;;;;;;;0.80;0.30;;;25.70;58.40;;;;;;4998794;28;20052;-74